map of SUB home
SUB - Airport
Location
City:  Surabaya, Jawa Timur, Indonesia
Name:Juanda International Airport
ICAO:WARR
IATA:SUB

Details
Type:Airport (Aerodrome, Airfield)
Use:Public/Civil, Military, International (customs port of entry)
Latitude:722'47"S (-7.379830)
Longitude:11247'13"E (112.786858)
Datum:WGS 1984
Elevation:9 ft (3 m)
Variation:0.89E (WMM2015 magnetic declination)
-0.06 annual change
Runways:1
Longest:9843 × 148 ft (3000 × 45 m), paved

Time
Time Zone:UTC+7
Local Time:

Weather
METAR:WARR 162130Z 27004KT 3000 BR FEW020 25/24 Q1006 NOSIG
TAF:WARR 161700Z 1618/1718 28003KT 4000 BR FEW020
BECMG 1700/1702 29010KT 9999 NSW
TEMPO 1708/1712 3000 TSRA SCT018CB
BECMG 1715/1717 27005KT 4000 HZ FEW020

Related Locations
Nearby:
Farthest:SFD: 12434 mi / 20011 km
San Fernando de Apu, J, VE

Find:

   beyond  
but within

Other Information
Maps:
NOTAMs:
Links:
Sources:

  
  • flag of Indonesia
  • flag of Jawa Timur
  

Sectional Chart

Flight Planning
at skyvector.com

Satellite Image

Google Maps Satellite view

 

Copyright © 2004-2019 Karl L. Swartz. All rights reserved.
The Great Circle Mapper name and logo are trademarks of the Great Circle Mapper.
All other trademarks mentioned herein belong to their respective owners.
Please see credits for attibutions and further copyright information.

  Follow gcmap on Facebook Follow gcmap on Twitter Follow gcmap on Google+ GCmap on LinkedIn

hCard Microformat

Geo Microformat